createdAt,value
2023-05-21T00:01:43.630Z,10.83
2023-05-21T00:04:11.871Z,11.21
2023-05-21T00:06:38.657Z,11.19
2023-05-21T00:09:06.606Z,11.20
2023-05-21T00:11:33.506Z,11.14
2023-05-21T00:14:00.196Z,11.08
2023-05-21T00:16:27.168Z,10.34
2023-05-21T00:18:54.759Z,11.03
2023-05-21T00:21:26.296Z,10.85
2023-05-21T00:23:56.905Z,10.82
2023-05-21T00:26:26.913Z,11.08
2023-05-21T00:28:57.147Z,11.01
2023-05-21T00:31:24.138Z,11.01
2023-05-21T00:33:50.927Z,10.95
2023-05-21T00:36:17.885Z,10.90
2023-05-21T00:38:45.608Z,10.69
2023-05-21T00:41:12.575Z,10.83
2023-05-21T00:43:42.113Z,10.74
2023-05-21T00:46:16.555Z,10.71
2023-05-21T00:48:45.924Z,10.50
2023-05-21T00:51:16.631Z,10.45
2023-05-21T00:53:46.002Z,10.63
2023-05-21T00:56:12.929Z,10.55
2023-05-21T00:58:40.982Z,9.50
2023-05-21T01:01:13.719Z,10.26
2023-05-21T01:03:41.080Z,9.40
2023-05-21T01:06:10.569Z,10.36
2023-05-21T01:08:38.662Z,10.43
2023-05-21T01:11:07.528Z,10.39
2023-05-21T01:13:38.977Z,10.38
2023-05-21T01:16:08.869Z,10.41
2023-05-21T01:18:38.036Z,10.48
2023-05-21T01:21:07.431Z,9.86
2023-05-21T01:23:34.461Z,10.47
2023-05-21T01:26:01.350Z,10.31
2023-05-21T01:28:29.856Z,9.95
2023-05-21T01:31:00.338Z,10.03
2023-05-21T01:33:38.636Z,9.79
2023-05-21T01:36:15.836Z,9.43
2023-05-21T01:38:48.093Z,8.71
2023-05-21T01:41:17.978Z,9.13
2023-05-21T01:43:46.820Z,8.86
2023-05-21T01:46:17.516Z,8.89
2023-05-21T01:48:44.742Z,8.23
2023-05-21T01:51:12.231Z,9.20
2023-05-21T01:53:40.645Z,9.35
2023-05-21T01:56:07.772Z,9.41
2023-05-21T01:58:34.655Z,9.01
2023-05-21T02:01:02.819Z,8.78
2023-05-21T02:03:31.133Z,8.93
2023-05-21T02:05:58.007Z,8.92
2023-05-21T02:08:25.570Z,9.15
2023-05-21T02:10:52.366Z,9.37
2023-05-21T02:13:21.477Z,9.52
2023-05-21T02:15:49.102Z,9.55
2023-05-21T02:18:16.778Z,9.65
2023-05-21T02:20:44.553Z,9.75
2023-05-21T02:23:11.229Z,9.77
2023-05-21T02:25:38.513Z,9.82
2023-05-21T02:28:06.781Z,9.83
2023-05-21T02:30:33.738Z,9.84
2023-05-21T02:33:01.069Z,9.79
2023-05-21T02:35:28.282Z,9.76
2023-05-21T02:37:59.187Z,9.05
2023-05-21T02:40:26.186Z,8.97
2023-05-21T02:42:52.926Z,9.80
2023-05-21T02:45:21.376Z,9.90
2023-05-21T02:47:48.180Z,9.40
2023-05-21T02:50:17.999Z,9.89
2023-05-21T02:52:50.692Z,9.83
2023-05-21T02:55:17.468Z,9.61
2023-05-21T02:57:44.097Z,9.49
2023-05-21T03:00:11.517Z,9.63
2023-05-21T03:02:39.599Z,9.68
2023-05-21T03:05:07.333Z,9.70
2023-05-21T03:07:34.056Z,9.69
2023-05-21T03:10:01.183Z,9.65
2023-05-21T03:12:27.888Z,9.59
2023-05-21T03:14:56.384Z,9.59
2023-05-21T03:17:23.097Z,9.62
2023-05-21T03:19:49.824Z,9.62
2023-05-21T03:22:16.858Z,9.22
2023-05-21T03:24:45.116Z,9.62
2023-05-21T03:27:12.018Z,9.52
2023-05-21T03:29:40.064Z,9.55
2023-05-21T03:32:07.951Z,9.57
2023-05-21T03:34:35.615Z,9.58
2023-05-21T03:37:03.128Z,9.59
2023-05-21T03:39:30.410Z,9.62
2023-05-21T03:41:57.635Z,9.64
2023-05-21T03:44:40.913Z,9.28
2023-05-21T03:47:42.941Z,9.47
2023-05-21T03:50:10.900Z,9.33
2023-05-21T03:52:37.625Z,9.71
2023-05-21T03:55:05.698Z,8.76
2023-05-21T03:57:32.827Z,9.68
2023-05-21T03:59:59.627Z,9.75
2023-05-21T04:02:27.547Z,9.39
2023-05-21T04:04:55.907Z,9.73
2023-05-21T04:07:22.998Z,9.81
2023-05-21T04:09:49.766Z,9.72
2023-05-21T04:12:18.129Z,9.71
2023-05-21T04:14:44.916Z,9.88
2023-05-21T04:17:12.805Z,9.96
2023-05-21T04:19:39.729Z,10.00
2023-05-21T04:22:06.509Z,10.00
2023-05-21T04:24:33.557Z,9.63
2023-05-21T04:27:09.933Z,10.03
2023-05-21T04:29:37.702Z,10.04
2023-05-21T04:32:05.196Z,10.05
2023-05-21T04:34:34.027Z,10.06
2023-05-21T04:37:04.697Z,10.14
2023-05-21T04:39:32.292Z,10.12
2023-05-21T04:41:59.021Z,10.14
2023-05-21T04:44:26.228Z,10.05
2023-05-21T04:46:54.795Z,10.32
2023-05-21T04:49:21.758Z,9.61
2023-05-21T04:51:49.452Z,10.41
2023-05-21T04:54:16.458Z,10.46
2023-05-21T04:56:43.821Z,10.34
2023-05-21T04:59:10.539Z,10.53
2023-05-21T05:01:38.556Z,10.60
2023-05-21T05:04:06.074Z,10.57
2023-05-21T05:06:32.818Z,10.03
2023-05-21T05:08:59.628Z,9.40
2023-05-21T05:11:26.657Z,10.83
2023-05-21T05:13:53.440Z,10.96
2023-05-21T05:16:25.261Z,10.35
2023-05-21T05:18:53.114Z,11.07
2023-05-21T05:21:22.429Z,11.13
2023-05-21T05:23:49.109Z,10.72
2023-05-21T05:26:16.164Z,11.01
2023-05-21T05:28:43.034Z,11.28
2023-05-21T05:31:09.840Z,11.36
2023-05-21T05:33:36.653Z,10.83
2023-05-21T05:36:03.659Z,11.50
2023-05-21T05:38:31.176Z,11.47
2023-05-21T05:40:57.995Z,11.65
2023-05-21T05:43:25.649Z,11.70
2023-05-21T05:45:52.689Z,11.75
2023-05-21T05:48:19.503Z,11.82
2023-05-21T05:50:46.602Z,11.88
2023-05-21T05:53:14.697Z,11.88
2023-05-21T05:55:41.462Z,11.98
2023-05-21T05:58:08.261Z,12.00
2023-05-21T06:00:49.902Z,11.87
2023-05-21T06:03:18.200Z,12.09
2023-05-21T06:05:45.193Z,12.17
2023-05-21T06:08:12.170Z,12.21
2023-05-21T06:10:38.801Z,12.28
2023-05-21T06:13:05.830Z,12.11
2023-05-21T06:15:33.674Z,12.34
2023-05-21T06:18:00.547Z,12.38
2023-05-21T06:20:27.762Z,12.36
2023-05-21T06:22:54.490Z,12.27
2023-05-21T06:25:21.197Z,12.54
2023-05-21T06:27:48.009Z,12.59
2023-05-21T06:30:20.121Z,12.73
2023-05-21T06:32:47.037Z,12.19
2023-05-21T06:35:14.927Z,12.80
2023-05-21T06:37:43.043Z,12.82
2023-05-21T06:40:10.104Z,12.87
2023-05-21T06:42:37.502Z,12.92
2023-05-21T06:45:36.668Z,13.02
2023-05-21T06:48:18.764Z,13.04
2023-05-21T06:50:47.308Z,13.09
2023-05-21T06:53:16.414Z,13.07
2023-05-21T06:55:45.092Z,12.90
2023-05-21T06:58:19.543Z,12.94
2023-05-21T07:00:47.502Z,13.27
2023-05-21T07:03:15.806Z,12.75
2023-05-21T07:05:42.692Z,13.54
2023-05-21T07:08:12.036Z,12.99
2023-05-21T07:10:39.338Z,13.69
2023-05-21T07:13:06.173Z,13.52
2023-05-21T07:15:33.283Z,13.48
2023-05-21T07:18:01.057Z,13.72
2023-05-21T07:20:27.830Z,13.64
2023-05-21T07:22:56.903Z,13.85
2023-05-21T07:25:23.803Z,13.67
2023-05-21T07:27:50.899Z,13.92
2023-05-21T07:30:17.625Z,14.09
2023-05-21T07:32:44.476Z,12.15
2023-05-21T07:35:11.342Z,13.99
2023-05-21T07:37:38.256Z,13.76
2023-05-21T07:40:06.427Z,13.78
2023-05-21T07:42:35.439Z,14.21
2023-05-21T07:45:03.054Z,14.25
2023-05-21T07:47:34.661Z,14.31
2023-05-21T07:50:01.457Z,14.33
2023-05-21T07:52:29.164Z,14.33
2023-05-21T07:54:56.275Z,14.27
2023-05-21T07:57:23.943Z,13.62
2023-05-21T07:59:56.851Z,14.38
2023-05-21T08:02:24.240Z,13.62
2023-05-21T08:04:52.610Z,14.33
2023-05-21T08:07:20.241Z,14.31
2023-05-21T08:09:49.462Z,14.03
2023-05-21T08:12:16.671Z,13.88
2023-05-21T08:14:44.054Z,14.40
2023-05-21T08:17:12.761Z,14.43
2023-05-21T08:19:39.677Z,14.47
2023-05-21T08:22:06.927Z,14.48
2023-05-21T08:24:35.322Z,14.25
2023-05-21T08:27:02.127Z,14.57
2023-05-21T08:29:30.888Z,14.03
2023-05-21T08:31:57.797Z,14.66
2023-05-21T08:34:26.662Z,14.35
2023-05-21T08:37:05.660Z,12.53
2023-05-21T08:40:12.327Z,14.86
2023-05-21T08:42:45.881Z,14.93
2023-05-21T08:45:22.590Z,15.09
2023-05-21T08:47:57.240Z,14.89
2023-05-21T08:50:27.857Z,14.99
2023-05-21T08:52:59.157Z,14.89
2023-05-21T08:55:27.683Z,14.93
2023-05-21T08:57:55.437Z,14.67
2023-05-21T09:00:24.313Z,13.84
2023-05-21T09:02:54.844Z,15.16
2023-05-21T09:05:23.992Z,15.11
2023-05-21T09:08:29.791Z,15.39
2023-05-21T09:11:10.491Z,15.45
2023-05-21T09:13:49.943Z,14.94
2023-05-21T09:16:29.039Z,14.68
2023-05-21T09:18:57.689Z,14.87
2023-05-21T09:21:33.344Z,15.60
2023-05-21T09:24:20.285Z,14.48
2023-05-21T09:26:57.393Z,10.12
2023-05-21T09:29:30.999Z,15.59
2023-05-21T09:32:07.269Z,15.58
2023-05-21T09:34:37.011Z,14.63
2023-05-21T09:37:23.779Z,15.78
2023-05-21T09:39:54.368Z,15.10
2023-05-21T09:42:21.899Z,15.76
2023-05-21T09:44:48.900Z,15.66
2023-05-21T09:47:19.863Z,15.00
2023-05-21T09:49:46.781Z,15.70
2023-05-21T09:52:13.489Z,15.98
2023-05-21T09:54:43.488Z,15.71
2023-05-21T09:57:10.229Z,15.93
2023-05-21T09:59:38.593Z,15.80
2023-05-21T10:02:20.965Z,15.77
2023-05-21T10:04:57.397Z,16.10
2023-05-21T10:07:27.130Z,15.66
2023-05-21T10:09:58.461Z,15.88
2023-05-21T10:12:26.048Z,15.05
2023-05-21T10:15:01.222Z,16.05
2023-05-21T10:17:29.730Z,15.84
2023-05-21T10:20:01.983Z,15.05
2023-05-21T10:22:32.805Z,15.82
2023-05-21T10:25:03.621Z,16.39
2023-05-21T10:27:32.430Z,16.41
2023-05-21T10:30:09.211Z,15.53
2023-05-21T10:32:36.151Z,16.39
2023-05-21T10:35:03.214Z,16.54
2023-05-21T10:37:30.803Z,15.93
2023-05-21T10:39:57.863Z,16.65
2023-05-21T10:42:55.291Z,16.21
2023-05-21T10:45:53.255Z,16.84
2023-05-21T10:48:44.720Z,16.78
2023-05-21T10:51:22.670Z,16.02
2023-05-21T10:54:17.003Z,16.59
2023-05-21T10:57:08.616Z,16.65
2023-05-21T10:59:43.460Z,16.65
2023-05-21T11:02:12.903Z,16.32
2023-05-21T11:04:42.557Z,16.59
2023-05-21T11:07:09.445Z,16.52
2023-05-21T11:09:36.174Z,16.51
2023-05-21T11:12:04.707Z,16.42
2023-05-21T11:14:36.552Z,15.81
2023-05-21T11:17:13.958Z,16.53
2023-05-21T11:19:47.525Z,16.97
2023-05-21T11:22:25.026Z,16.10
2023-05-21T11:24:55.925Z,16.07
2023-05-21T11:27:48.887Z,16.95
2023-05-21T11:30:17.937Z,16.90
2023-05-21T11:33:14.041Z,17.01
2023-05-21T11:35:50.215Z,17.10
2023-05-21T11:38:18.037Z,16.85
2023-05-21T11:40:55.016Z,16.71
2023-05-21T11:43:22.091Z,16.86
2023-05-21T11:45:50.644Z,16.88
2023-05-21T11:48:18.263Z,16.81
2023-05-21T11:50:45.493Z,17.23
2023-05-21T11:53:12.371Z,17.20
2023-05-21T11:55:43.501Z,17.06
2023-05-21T11:58:19.199Z,17.01
2023-05-21T12:00:45.976Z,16.88
2023-05-21T12:03:14.412Z,17.01
2023-05-21T12:05:50.736Z,16.43
2023-05-21T12:08:22.747Z,16.89
2023-05-21T12:10:49.465Z,16.42
2023-05-21T12:13:16.208Z,17.36
2023-05-21T12:15:42.943Z,17.22
2023-05-21T12:18:09.730Z,16.88
2023-05-21T12:20:36.855Z,17.42
2023-05-21T12:23:03.667Z,15.28
2023-05-21T12:25:32.084Z,17.09
2023-05-21T12:28:01.405Z,16.59
2023-05-21T12:30:28.753Z,16.93
2023-05-21T12:32:58.437Z,17.17
2023-05-21T12:35:25.396Z,16.92
2023-05-21T12:37:52.479Z,17.24
2023-05-21T12:40:19.936Z,17.72
2023-05-21T12:42:46.827Z,17.59
2023-05-21T12:45:14.242Z,17.95
2023-05-21T12:47:41.184Z,18.05
2023-05-21T12:50:13.886Z,17.05
2023-05-21T12:52:44.312Z,17.97
2023-05-21T12:55:13.923Z,18.05
2023-05-21T12:57:40.721Z,18.12
2023-05-21T13:00:08.909Z,17.78
2023-05-21T13:02:40.913Z,17.43
2023-05-21T13:05:09.653Z,18.20
2023-05-21T13:07:38.173Z,18.15
2023-05-21T13:10:06.169Z,17.78
2023-05-21T13:12:34.639Z,18.54
2023-05-21T13:15:03.382Z,18.05
2023-05-21T13:17:32.684Z,17.79
2023-05-21T13:20:26.296Z,18.22
2023-05-21T13:22:54.021Z,18.44
2023-05-21T13:25:22.365Z,18.48
2023-05-21T13:27:50.420Z,17.31
2023-05-21T13:30:17.465Z,18.46
2023-05-21T13:32:44.772Z,17.83
2023-05-21T13:35:12.141Z,17.91
2023-05-21T13:37:40.755Z,18.64
2023-05-21T13:40:14.905Z,18.74
2023-05-21T13:42:43.391Z,18.45
2023-05-21T13:45:12.365Z,18.47
2023-05-21T13:47:40.725Z,18.69
2023-05-21T13:50:08.853Z,18.68
2023-05-21T13:52:36.404Z,18.50
2023-05-21T13:55:03.364Z,17.96
2023-05-21T13:57:31.108Z,18.89
2023-05-21T13:59:58.857Z,18.70
2023-05-21T14:02:26.202Z,18.50
2023-05-21T14:04:53.259Z,18.64
2023-05-21T14:07:20.102Z,17.94
2023-05-21T14:09:47.764Z,18.29
2023-05-21T14:12:14.543Z,18.84
2023-05-21T14:14:42.116Z,18.55
2023-05-21T14:17:09.053Z,18.28
2023-05-21T14:19:35.985Z,18.64
2023-05-21T14:22:02.818Z,18.73
2023-05-21T14:24:29.488Z,18.64
2023-05-21T14:26:56.406Z,18.80
2023-05-21T14:29:23.244Z,18.78
2023-05-21T14:31:50.528Z,18.29
2023-05-21T14:34:17.795Z,17.81
2023-05-21T14:36:44.626Z,18.58
2023-05-21T14:39:11.609Z,18.34
2023-05-21T14:41:39.873Z,18.09
2023-05-21T14:44:06.763Z,18.24
2023-05-21T14:46:33.715Z,18.23
2023-05-21T14:49:00.840Z,18.72
2023-05-21T14:51:49.779Z,18.91
2023-05-21T14:54:18.455Z,14.86
2023-05-21T14:56:45.233Z,17.83
2023-05-21T14:59:12.929Z,17.38
2023-05-21T15:01:39.765Z,18.72
2023-05-21T15:04:08.710Z,18.18
2023-05-21T15:06:35.626Z,17.24
2023-05-21T15:09:02.455Z,18.90
2023-05-21T15:11:29.346Z,17.63
2023-05-21T15:13:57.010Z,18.83
2023-05-21T15:16:23.853Z,18.85
2023-05-21T15:18:51.142Z,17.55
2023-05-21T15:21:17.919Z,17.03
2023-05-21T15:23:44.838Z,18.45
2023-05-21T15:26:11.642Z,18.49
2023-05-21T15:28:38.457Z,17.92
2023-05-21T15:31:05.485Z,18.46
2023-05-21T15:33:32.476Z,18.75
2023-05-21T15:35:59.403Z,17.39
2023-05-21T15:38:26.265Z,18.79
2023-05-21T15:40:53.072Z,18.72
2023-05-21T15:43:19.976Z,17.76
2023-05-21T15:45:46.927Z,16.29
2023-05-21T15:48:17.412Z,17.51
2023-05-21T15:50:44.182Z,17.78
2023-05-21T15:53:11.057Z,18.69
2023-05-21T15:55:38.112Z,18.79
2023-05-21T15:58:05.325Z,17.64
2023-05-21T16:00:32.258Z,19.05
2023-05-21T16:02:59.044Z,17.96
2023-05-21T16:05:29.352Z,18.39
2023-05-21T16:08:03.661Z,19.12
2023-05-21T16:10:32.642Z,19.09
2023-05-21T16:12:59.592Z,19.35
2023-05-21T16:15:28.505Z,19.22
2023-05-21T16:17:55.382Z,19.22
2023-05-21T16:20:22.137Z,17.54
2023-05-21T16:22:48.886Z,19.35
2023-05-21T16:25:15.591Z,19.01
2023-05-21T16:27:42.596Z,18.51
2023-05-21T16:30:09.695Z,19.18
2023-05-21T16:32:36.443Z,18.24
2023-05-21T16:35:03.654Z,19.59
2023-05-21T16:37:30.525Z,19.26
2023-05-21T16:39:57.303Z,19.27
2023-05-21T16:42:24.084Z,19.39
2023-05-21T16:44:50.859Z,19.22
2023-05-21T16:47:17.691Z,19.42
2023-05-21T16:49:44.377Z,19.49
2023-05-21T16:52:11.170Z,19.16
2023-05-21T16:54:37.796Z,19.53
2023-05-21T16:57:04.495Z,19.54
2023-05-21T16:59:31.251Z,18.79
2023-05-21T17:01:58.011Z,19.37
2023-05-21T17:04:29.450Z,18.79
2023-05-21T17:06:57.167Z,19.38
2023-05-21T17:09:41.603Z,18.73
2023-05-21T17:12:09.138Z,18.52
2023-05-21T17:14:37.193Z,18.55
2023-05-21T17:17:05.161Z,18.99
2023-05-21T17:19:32.123Z,18.67
2023-05-21T17:21:59.154Z,19.30
2023-05-21T17:24:25.962Z,17.07
2023-05-21T17:26:53.701Z,18.53
2023-05-21T17:29:20.448Z,18.91
2023-05-21T17:31:47.289Z,19.15
2023-05-21T17:34:14.038Z,19.00
2023-05-21T17:36:41.168Z,19.14
2023-05-21T17:39:07.853Z,19.11
2023-05-21T17:41:34.674Z,18.83
2023-05-21T17:44:01.435Z,18.24
2023-05-21T17:46:28.268Z,18.35
2023-05-21T17:48:55.025Z,18.48
2023-05-21T17:51:21.830Z,18.26
2023-05-21T17:53:48.517Z,18.49
2023-05-21T17:56:15.369Z,18.67
2023-05-21T17:58:42.188Z,18.72
2023-05-21T18:01:08.955Z,18.56
2023-05-21T18:03:35.754Z,18.51
2023-05-21T18:06:02.619Z,18.55
2023-05-21T18:08:29.295Z,18.21
2023-05-21T18:10:56.124Z,18.75
2023-05-21T18:13:22.864Z,18.73
2023-05-21T18:15:49.761Z,18.69
2023-05-21T18:18:20.579Z,18.62
2023-05-21T18:20:48.881Z,18.60
2023-05-21T18:23:16.088Z,18.27
2023-05-21T18:25:42.873Z,17.13
2023-05-21T18:28:10.478Z,17.34
2023-05-21T18:30:37.323Z,18.24
2023-05-21T18:33:04.552Z,17.85
2023-05-21T18:35:31.367Z,18.35
2023-05-21T18:37:58.201Z,18.18
2023-05-21T18:40:28.545Z,18.07
2023-05-21T18:42:57.370Z,18.19
2023-05-21T18:45:24.027Z,17.56
2023-05-21T18:47:50.960Z,17.14
2023-05-21T18:50:19.116Z,17.33
2023-05-21T18:52:46.584Z,17.33
2023-05-21T18:55:14.792Z,17.64
2023-05-21T18:57:41.589Z,16.71
2023-05-21T19:00:09.747Z,17.75
2023-05-21T19:02:37.098Z,17.70
2023-05-21T19:05:04.072Z,17.65
2023-05-21T19:07:30.960Z,16.92
2023-05-21T19:10:00.006Z,17.53
2023-05-21T19:12:27.055Z,17.48
2023-05-21T19:14:53.742Z,17.20
2023-05-21T19:17:20.635Z,17.32
2023-05-21T19:19:55.430Z,16.63
2023-05-21T19:22:29.241Z,17.27
2023-05-21T19:25:00.170Z,17.21
2023-05-21T19:27:30.788Z,16.84
2023-05-21T19:30:01.066Z,17.07
2023-05-21T19:32:29.147Z,17.00
2023-05-21T19:34:57.395Z,16.81
2023-05-21T19:37:24.212Z,16.90
2023-05-21T19:39:50.934Z,16.83
2023-05-21T19:42:19.769Z,16.47
2023-05-21T19:44:46.462Z,16.67
2023-05-21T19:47:13.265Z,16.44
2023-05-21T19:49:39.904Z,15.41
2023-05-21T19:52:06.678Z,15.71
2023-05-21T19:54:33.395Z,16.24
2023-05-21T19:57:01.100Z,16.13
2023-05-21T19:59:28.322Z,14.58
2023-05-21T20:01:55.629Z,16.03
2023-05-21T20:04:23.657Z,15.96
2023-05-21T20:06:51.482Z,16.23
2023-05-21T20:09:18.280Z,16.18
2023-05-21T20:11:45.106Z,15.61
2023-05-21T20:14:11.875Z,15.60
2023-05-21T20:16:39.649Z,15.98
2023-05-21T20:19:06.528Z,15.93
2023-05-21T20:21:33.417Z,15.55
2023-05-21T20:24:00.197Z,15.83
2023-05-21T20:26:27.087Z,15.33
2023-05-21T20:28:54.161Z,15.00
2023-05-21T20:31:21.624Z,14.69
2023-05-21T20:33:50.639Z,15.50
2023-05-21T20:36:17.757Z,15.07
2023-05-21T20:38:45.574Z,14.46
2023-05-21T20:41:13.052Z,14.57
2023-05-21T20:43:39.909Z,13.08
2023-05-21T20:46:07.744Z,15.11
2023-05-21T20:48:35.372Z,15.04
2023-05-21T20:51:04.593Z,14.78
2023-05-21T20:53:31.973Z,14.78
2023-05-21T20:56:01.442Z,15.16
2023-05-21T20:58:28.835Z,15.14
2023-05-21T21:00:55.636Z,13.33
2023-05-21T21:03:22.459Z,14.95
2023-05-21T21:05:49.302Z,14.27
2023-05-21T21:08:16.224Z,14.81
2023-05-21T21:10:46.649Z,14.44
2023-05-21T21:13:14.265Z,14.78
2023-05-21T21:15:41.119Z,13.66
2023-05-21T21:18:07.945Z,14.92
2023-05-21T21:20:34.689Z,14.90
2023-05-21T21:23:01.504Z,15.02
2023-05-21T21:25:28.179Z,14.87
2023-05-21T21:27:54.884Z,14.28
2023-05-21T21:30:22.089Z,14.75
2023-05-21T21:32:49.479Z,14.87
2023-05-21T21:35:16.549Z,14.85
2023-05-21T21:37:43.268Z,14.79
2023-05-21T21:40:10.324Z,14.25
2023-05-21T21:42:37.042Z,14.74
2023-05-21T21:45:04.788Z,13.84
2023-05-21T21:47:32.258Z,14.60
2023-05-21T21:49:59.059Z,14.56
2023-05-21T21:52:29.051Z,14.25
2023-05-21T21:54:55.854Z,14.43
2023-05-21T21:57:22.697Z,13.39
2023-05-21T21:59:50.134Z,13.31
2023-05-21T22:02:17.956Z,14.26
2023-05-21T22:04:45.362Z,14.24
2023-05-21T22:07:18.243Z,13.44
2023-05-21T22:09:45.764Z,14.15
2023-05-21T22:12:12.938Z,13.78
2023-05-21T22:14:39.686Z,14.10
2023-05-21T22:17:08.475Z,13.20
2023-05-21T22:19:35.890Z,13.57
2023-05-21T22:22:04.209Z,13.41
2023-05-21T22:24:32.455Z,13.78
2023-05-21T22:27:00.094Z,13.97
2023-05-21T22:29:26.798Z,14.04
2023-05-21T22:31:53.545Z,14.07
2023-05-21T22:34:20.291Z,13.93
2023-05-21T22:36:47.395Z,13.77
2023-05-21T22:39:14.176Z,13.85
2023-05-21T22:41:40.938Z,13.47
2023-05-21T22:44:07.678Z,13.77
2023-05-21T22:46:35.533Z,13.31
2023-05-21T22:49:02.587Z,13.80
2023-05-21T22:51:34.214Z,13.77
2023-05-21T22:54:01.671Z,13.42
2023-05-21T22:56:28.662Z,13.67
2023-05-21T22:58:55.867Z,13.65
2023-05-21T23:01:22.696Z,13.47
2023-05-21T23:03:49.507Z,12.69
2023-05-21T23:06:16.195Z,13.39
2023-05-21T23:08:42.936Z,12.97
2023-05-21T23:11:09.857Z,12.48
2023-05-21T23:13:36.671Z,13.38
2023-05-21T23:16:03.825Z,13.38
2023-05-21T23:18:31.004Z,13.31
2023-05-21T23:20:57.737Z,13.35
2023-05-21T23:23:24.489Z,13.43
2023-05-21T23:25:53.054Z,13.43
2023-05-21T23:28:19.965Z,12.80
2023-05-21T23:30:46.662Z,13.22
2023-05-21T23:33:13.883Z,13.30
2023-05-21T23:35:40.825Z,12.68
2023-05-21T23:38:07.611Z,12.44
2023-05-21T23:40:34.336Z,12.37
2023-05-21T23:43:01.252Z,10.48
2023-05-21T23:45:27.920Z,12.98
2023-05-21T23:47:54.798Z,12.81
2023-05-21T23:50:21.550Z,12.91
2023-05-21T23:52:48.282Z,12.81
2023-05-21T23:55:15.645Z,12.29
2023-05-21T23:57:42.403Z,12.46
